sensor_id;sensor_type;location;lat;lon;timestamp;P1;durP1;ratioP1;P2;durP2;ratioP2
77089;SDS011;66028;53.558;9.950;2024-03-02T00:00:05;17.10;;;10.02;;
77089;SDS011;66028;53.558;9.950;2024-03-02T00:02:43;18.80;;;10.48;;
77089;SDS011;66028;53.558;9.950;2024-03-02T00:05:12;21.25;;;10.82;;
77089;SDS011;66028;53.558;9.950;2024-03-02T00:07:42;20.77;;;10.52;;
77089;SDS011;66028;53.558;9.950;2024-03-02T00:10:10;24.52;;;11.70;;
77089;SDS011;66028;53.558;9.950;2024-03-02T00:12:37;18.35;;;9.75;;
77089;SDS011;66028;53.558;9.950;2024-03-02T00:15:06;19.60;;;10.32;;
77089;SDS011;66028;53.558;9.950;2024-03-02T00:17:58;20.55;;;10.98;;
77089;SDS011;66028;53.558;9.950;2024-03-02T00:22:52;18.83;;;10.15;;
77089;SDS011;66028;53.558;9.950;2024-03-02T00:25:27;20.08;;;10.23;;
77089;SDS011;66028;53.558;9.950;2024-03-02T00:30:40;19.53;;;9.83;;
77089;SDS011;66028;53.558;9.950;2024-03-02T00:33:13;20.55;;;10.85;;
77089;SDS011;66028;53.558;9.950;2024-03-02T00:35:39;18.43;;;10.47;;
77089;SDS011;66028;53.558;9.950;2024-03-02T00:40:31;20.50;;;11.27;;
77089;SDS011;66028;53.558;9.950;2024-03-02T00:42:57;20.48;;;10.90;;
77089;SDS011;66028;53.558;9.950;2024-03-02T00:45:22;20.80;;;10.75;;
77089;SDS011;66028;53.558;9.950;2024-03-02T00:47:49;20.95;;;10.85;;
77089;SDS011;66028;53.558;9.950;2024-03-02T00:50:15;22.48;;;11.35;;
77089;SDS011;66028;53.558;9.950;2024-03-02T00:52:40;19.90;;;10.40;;
77089;SDS011;66028;53.558;9.950;2024-03-02T00:57:32;26.70;;;11.10;;
77089;SDS011;66028;53.558;9.950;2024-03-02T00:59:59;24.05;;;12.48;;
77089;SDS011;66028;53.558;9.950;2024-03-02T01:04:50;23.70;;;11.70;;
77089;SDS011;66028;53.558;9.950;2024-03-02T01:09:40;25.00;;;13.03;;
77089;SDS011;66028;53.558;9.950;2024-03-02T01:14:31;30.38;;;15.23;;
77089;SDS011;66028;53.558;9.950;2024-03-02T01:19:22;27.63;;;13.33;;
77089;SDS011;66028;53.558;9.950;2024-03-02T01:24:12;29.77;;;14.93;;
77089;SDS011;66028;53.558;9.950;2024-03-02T01:29:03;31.13;;;15.30;;
77089;SDS011;66028;53.558;9.950;2024-03-02T01:31:28;34.50;;;16.60;;
77089;SDS011;66028;53.558;9.950;2024-03-02T01:36:19;38.40;;;18.73;;
77089;SDS011;66028;53.558;9.950;2024-03-02T01:41:09;34.60;;;16.43;;
77089;SDS011;66028;53.558;9.950;2024-03-02T01:46:00;34.83;;;16.97;;
77089;SDS011;66028;53.558;9.950;2024-03-02T01:50:50;35.33;;;16.97;;
77089;SDS011;66028;53.558;9.950;2024-03-02T01:55:41;36.00;;;16.60;;
77089;SDS011;66028;53.558;9.950;2024-03-02T02:00:32;39.93;;;17.90;;
77089;SDS011;66028;53.558;9.950;2024-03-02T02:05:22;38.30;;;17.40;;
77089;SDS011;66028;53.558;9.950;2024-03-02T02:10:14;38.20;;;17.67;;
77089;SDS011;66028;53.558;9.950;2024-03-02T02:12:39;40.08;;;18.67;;
77089;SDS011;66028;53.558;9.950;2024-03-02T02:15:26;36.58;;;18.05;;
77089;SDS011;66028;53.558;9.950;2024-03-02T02:17:51;39.63;;;18.85;;
77089;SDS011;66028;53.558;9.950;2024-03-02T02:22:58;41.00;;;18.07;;
77089;SDS011;66028;53.558;9.950;2024-03-02T02:25:25;39.25;;;17.50;;
77089;SDS011;66028;53.558;9.950;2024-03-02T02:30:24;38.77;;;16.90;;
77089;SDS011;66028;53.558;9.950;2024-03-02T02:32:51;37.33;;;17.85;;
77089;SDS011;66028;53.558;9.950;2024-03-02T02:37:42;36.70;;;17.37;;
77089;SDS011;66028;53.558;9.950;2024-03-02T02:40:08;37.28;;;17.95;;
77089;SDS011;66028;53.558;9.950;2024-03-02T02:42:34;40.13;;;19.15;;
77089;SDS011;66028;53.558;9.950;2024-03-02T02:47:25;31.23;;;14.77;;
77089;SDS011;66028;53.558;9.950;2024-03-02T02:49:50;36.90;;;16.13;;
77089;SDS011;66028;53.558;9.950;2024-03-02T02:54:41;35.37;;;15.83;;
77089;SDS011;66028;53.558;9.950;2024-03-02T02:57:09;31.23;;;16.10;;
77089;SDS011;66028;53.558;9.950;2024-03-02T03:02:00;32.22;;;16.10;;
77089;SDS011;66028;53.558;9.950;2024-03-02T03:06:50;35.20;;;15.30;;
77089;SDS011;66028;53.558;9.950;2024-03-02T03:11:41;38.60;;;16.50;;
77089;SDS011;66028;53.558;9.950;2024-03-02T03:16:31;33.70;;;16.53;;
77089;SDS011;66028;53.558;9.950;2024-03-02T03:21:22;34.07;;;15.27;;
77089;SDS011;66028;53.558;9.950;2024-03-02T03:26:12;32.73;;;16.00;;
77089;SDS011;66028;53.558;9.950;2024-03-02T03:31:03;31.13;;;16.15;;
77089;SDS011;66028;53.558;9.950;2024-03-02T03:35:54;31.83;;;14.97;;
77089;SDS011;66028;53.558;9.950;2024-03-02T03:40:44;32.83;;;16.10;;
77089;SDS011;66028;53.558;9.950;2024-03-02T03:45:35;33.90;;;16.20;;
77089;SDS011;66028;53.558;9.950;2024-03-02T03:50:26;30.50;;;14.88;;
77089;SDS011;66028;53.558;9.950;2024-03-02T03:55:16;35.10;;;16.73;;
77089;SDS011;66028;53.558;9.950;2024-03-02T04:00:07;35.92;;;16.80;;
77089;SDS011;66028;53.558;9.950;2024-03-02T04:02:35;33.63;;;16.88;;
77089;SDS011;66028;53.558;9.950;2024-03-02T04:07:25;33.80;;;16.17;;
77089;SDS011;66028;53.558;9.950;2024-03-02T04:12:16;33.27;;;16.13;;
77089;SDS011;66028;53.558;9.950;2024-03-02T04:17:07;35.05;;;16.25;;
77089;SDS011;66028;53.558;9.950;2024-03-02T04:21:57;30.57;;;16.03;;
77089;SDS011;66028;53.558;9.950;2024-03-02T04:26:48;31.10;;;14.57;;
77089;SDS011;66028;53.558;9.950;2024-03-02T04:29:13;32.30;;;14.87;;
77089;SDS011;66028;53.558;9.950;2024-03-02T04:31:38;33.43;;;16.87;;
77089;SDS011;66028;53.558;9.950;2024-03-02T04:36:29;26.53;;;14.33;;
77089;SDS011;66028;53.558;9.950;2024-03-02T04:41:19;29.47;;;15.47;;
77089;SDS011;66028;53.558;9.950;2024-03-02T04:46:10;32.00;;;15.30;;
77089;SDS011;66028;53.558;9.950;2024-03-02T04:51:01;33.33;;;16.67;;
77089;SDS011;66028;53.558;9.950;2024-03-02T04:55:51;28.97;;;14.83;;
77089;SDS011;66028;53.558;9.950;2024-03-02T04:58:35;35.58;;;16.98;;
77089;SDS011;66028;53.558;9.950;2024-03-02T05:03:25;29.70;;;15.47;;
77089;SDS011;66028;53.558;9.950;2024-03-02T05:08:16;31.07;;;14.70;;
77089;SDS011;66028;53.558;9.950;2024-03-02T05:10:42;33.08;;;15.55;;
77089;SDS011;66028;53.558;9.950;2024-03-02T05:15:32;32.47;;;15.50;;
77089;SDS011;66028;53.558;9.950;2024-03-02T05:20:24;29.33;;;15.82;;
77089;SDS011;66028;53.558;9.950;2024-03-02T05:25:15;32.20;;;15.70;;
77089;SDS011;66028;53.558;9.950;2024-03-02T05:30:06;31.20;;;16.48;;
77089;SDS011;66028;53.558;9.950;2024-03-02T05:32:32;32.65;;;16.30;;
77089;SDS011;66028;53.558;9.950;2024-03-02T05:34:58;32.60;;;15.95;;
77089;SDS011;66028;53.558;9.950;2024-03-02T05:39:48;29.40;;;14.43;;
77089;SDS011;66028;53.558;9.950;2024-03-02T05:44:39;29.27;;;14.07;;
77089;SDS011;66028;53.558;9.950;2024-03-02T05:49:30;27.38;;;13.70;;
77089;SDS011;66028;53.558;9.950;2024-03-02T05:54:21;28.80;;;15.18;;
77089;SDS011;66028;53.558;9.950;2024-03-02T05:56:46;30.23;;;15.07;;
77089;SDS011;66028;53.558;9.950;2024-03-02T06:01:41;28.52;;;14.32;;
77089;SDS011;66028;53.558;9.950;2024-03-02T06:04:07;29.58;;;15.27;;
77089;SDS011;66028;53.558;9.950;2024-03-02T06:08:59;30.00;;;15.47;;
77089;SDS011;66028;53.558;9.950;2024-03-02T06:11:25;35.50;;;15.55;;
77089;SDS011;66028;53.558;9.950;2024-03-02T06:16:15;31.80;;;14.33;;
77089;SDS011;66028;53.558;9.950;2024-03-02T06:18:41;32.63;;;15.07;;
77089;SDS011;66028;53.558;9.950;2024-03-02T06:23:31;32.53;;;15.03;;
77089;SDS011;66028;53.558;9.950;2024-03-02T06:28:22;28.27;;;12.70;;
77089;SDS011;66028;53.558;9.950;2024-03-02T06:33:12;28.80;;;14.10;;
77089;SDS011;66028;53.558;9.950;2024-03-02T06:38:04;29.08;;;13.65;;
77089;SDS011;66028;53.558;9.950;2024-03-02T06:40:29;28.48;;;15.32;;
77089;SDS011;66028;53.558;9.950;2024-03-02T06:42:54;38.73;;;15.80;;
77089;SDS011;66028;53.558;9.950;2024-03-02T06:45:20;28.70;;;14.27;;
77089;SDS011;66028;53.558;9.950;2024-03-02T06:47:45;29.23;;;14.73;;
77089;SDS011;66028;53.558;9.950;2024-03-02T06:50:10;28.63;;;14.80;;
77089;SDS011;66028;53.558;9.950;2024-03-02T06:52:36;31.27;;;15.88;;
77089;SDS011;66028;53.558;9.950;2024-03-02T06:55:01;27.27;;;14.00;;
77089;SDS011;66028;53.558;9.950;2024-03-02T06:57:27;29.95;;;16.00;;
77089;SDS011;66028;53.558;9.950;2024-03-02T07:02:19;26.77;;;14.40;;
77089;SDS011;66028;53.558;9.950;2024-03-02T07:04:45;29.70;;;14.48;;
77089;SDS011;66028;53.558;9.950;2024-03-02T07:09:36;30.77;;;14.10;;
77089;SDS011;66028;53.558;9.950;2024-03-02T07:12:02;27.23;;;14.37;;
77089;SDS011;66028;53.558;9.950;2024-03-02T07:14:27;29.75;;;15.77;;
77089;SDS011;66028;53.558;9.950;2024-03-02T07:17:12;25.13;;;13.88;;
77089;SDS011;66028;53.558;9.950;2024-03-02T07:22:05;35.15;;;14.48;;
77089;SDS011;66028;53.558;9.950;2024-03-02T07:24:32;30.58;;;14.93;;
77089;SDS011;66028;53.558;9.950;2024-03-02T07:29:22;27.57;;;14.07;;
77089;SDS011;66028;53.558;9.950;2024-03-02T07:34:13;27.63;;;13.17;;
77089;SDS011;66028;53.558;9.950;2024-03-02T07:39:04;25.13;;;12.40;;
77089;SDS011;66028;53.558;9.950;2024-03-02T07:43:54;29.60;;;13.45;;
77089;SDS011;66028;53.558;9.950;2024-03-02T07:48:45;23.73;;;12.20;;
77089;SDS011;66028;53.558;9.950;2024-03-02T07:53:35;24.97;;;12.57;;
77089;SDS011;66028;53.558;9.950;2024-03-02T07:58:27;27.48;;;13.23;;
77089;SDS011;66028;53.558;9.950;2024-03-02T08:03:18;27.43;;;13.27;;
77089;SDS011;66028;53.558;9.950;2024-03-02T08:08:09;26.40;;;13.93;;
77089;SDS011;66028;53.558;9.950;2024-03-02T08:12:59;22.67;;;12.30;;
77089;SDS011;66028;53.558;9.950;2024-03-02T08:15:25;27.48;;;12.93;;
77089;SDS011;66028;53.558;9.950;2024-03-02T08:17:50;23.13;;;13.35;;
77089;SDS011;66028;53.558;9.950;2024-03-02T08:22:41;25.15;;;13.88;;
77089;SDS011;66028;53.558;9.950;2024-03-02T08:27:33;25.05;;;13.48;;
77089;SDS011;66028;53.558;9.950;2024-03-02T08:29:58;26.02;;;12.60;;
77089;SDS011;66028;53.558;9.950;2024-03-02T08:34:49;22.80;;;12.73;;
77089;SDS011;66028;53.558;9.950;2024-03-02T08:37:14;23.40;;;12.27;;
77089;SDS011;66028;53.558;9.950;2024-03-02T08:42:04;23.97;;;11.87;;
77089;SDS011;66028;53.558;9.950;2024-03-02T08:46:55;22.83;;;13.23;;
77089;SDS011;66028;53.558;9.950;2024-03-02T08:49:21;26.40;;;13.02;;
77089;SDS011;66028;53.558;9.950;2024-03-02T08:54:19;22.70;;;12.20;;
77089;SDS011;66028;53.558;9.950;2024-03-02T08:59:10;22.70;;;11.63;;
77089;SDS011;66028;53.558;9.950;2024-03-02T09:01:37;22.85;;;12.77;;
77089;SDS011;66028;53.558;9.950;2024-03-02T09:04:06;22.48;;;12.32;;
77089;SDS011;66028;53.558;9.950;2024-03-02T09:06:33;23.95;;;13.38;;
77089;SDS011;66028;53.558;9.950;2024-03-02T09:08:59;19.25;;;10.85;;
77089;SDS011;66028;53.558;9.950;2024-03-02T09:11:24;45.95;;;13.13;;
77089;SDS011;66028;53.558;9.950;2024-03-02T09:13:50;21.63;;;12.40;;
77089;SDS011;66028;53.558;9.950;2024-03-02T09:16:15;25.97;;;12.27;;
77089;SDS011;66028;53.558;9.950;2024-03-02T09:18:40;23.02;;;11.77;;
77089;SDS011;66028;53.558;9.950;2024-03-02T09:21:06;21.20;;;12.07;;
77089;SDS011;66028;53.558;9.950;2024-03-02T09:23:31;22.63;;;11.60;;
77089;SDS011;66028;53.558;9.950;2024-03-02T09:25:57;21.30;;;11.75;;
77089;SDS011;66028;53.558;9.950;2024-03-02T09:28:22;20.00;;;11.17;;
77089;SDS011;66028;53.558;9.950;2024-03-02T09:30:47;22.33;;;11.17;;
77089;SDS011;66028;53.558;9.950;2024-03-02T09:33:12;19.27;;;11.53;;
77089;SDS011;66028;53.558;9.950;2024-03-02T09:35:38;19.83;;;10.97;;
77089;SDS011;66028;53.558;9.950;2024-03-02T09:38:03;19.35;;;11.07;;
77089;SDS011;66028;53.558;9.950;2024-03-02T09:40:29;19.67;;;10.35;;
77089;SDS011;66028;53.558;9.950;2024-03-02T09:42:55;20.50;;;11.30;;
77089;SDS011;66028;53.558;9.950;2024-03-02T09:45:22;21.20;;;11.40;;
77089;SDS011;66028;53.558;9.950;2024-03-02T09:47:49;20.75;;;11.20;;
77089;SDS011;66028;53.558;9.950;2024-03-02T09:50:14;18.17;;;10.45;;
77089;SDS011;66028;53.558;9.950;2024-03-02T09:52:41;19.33;;;10.90;;
77089;SDS011;66028;53.558;9.950;2024-03-02T09:55:07;19.52;;;11.00;;
77089;SDS011;66028;53.558;9.950;2024-03-02T09:57:33;19.52;;;11.23;;
77089;SDS011;66028;53.558;9.950;2024-03-02T09:59:59;16.93;;;10.00;;
77089;SDS011;66028;53.558;9.950;2024-03-02T10:02:24;17.67;;;9.93;;
77089;SDS011;66028;53.558;9.950;2024-03-02T10:04:49;19.20;;;11.07;;
77089;SDS011;66028;53.558;9.950;2024-03-02T10:07:16;17.57;;;10.63;;
77089;SDS011;66028;53.558;9.950;2024-03-02T10:09:43;19.83;;;10.80;;
77089;SDS011;66028;53.558;9.950;2024-03-02T10:12:10;21.10;;;11.23;;
77089;SDS011;66028;53.558;9.950;2024-03-02T10:14:37;17.48;;;9.85;;
77089;SDS011;66028;53.558;9.950;2024-03-02T10:17:03;16.40;;;10.02;;
77089;SDS011;66028;53.558;9.950;2024-03-02T10:19:33;15.25;;;9.05;;
77089;SDS011;66028;53.558;9.950;2024-03-02T10:22:00;17.63;;;10.43;;
77089;SDS011;66028;53.558;9.950;2024-03-02T10:24:27;18.73;;;9.18;;
77089;SDS011;66028;53.558;9.950;2024-03-02T10:26:59;16.33;;;9.02;;
77089;SDS011;66028;53.558;9.950;2024-03-02T10:29:24;16.83;;;9.50;;
77089;SDS011;66028;53.558;9.950;2024-03-02T10:31:53;15.95;;;8.68;;
77089;SDS011;66028;53.558;9.950;2024-03-02T10:34:19;17.65;;;9.20;;
77089;SDS011;66028;53.558;9.950;2024-03-02T10:36:46;15.10;;;8.20;;
77089;SDS011;66028;53.558;9.950;2024-03-02T10:39:12;14.95;;;9.43;;
77089;SDS011;66028;53.558;9.950;2024-03-02T10:41:39;15.05;;;8.63;;
77089;SDS011;66028;53.558;9.950;2024-03-02T10:44:06;19.52;;;8.45;;
77089;SDS011;66028;53.558;9.950;2024-03-02T10:46:32;13.88;;;8.60;;
77089;SDS011;66028;53.558;9.950;2024-03-02T10:48:59;13.32;;;8.13;;
77089;SDS011;66028;53.558;9.950;2024-03-02T10:51:26;13.10;;;8.07;;
77089;SDS011;66028;53.558;9.950;2024-03-02T10:53:53;14.77;;;8.07;;
77089;SDS011;66028;53.558;9.950;2024-03-02T10:56:28;15.10;;;8.35;;
77089;SDS011;66028;53.558;9.950;2024-03-02T10:59:16;13.95;;;7.88;;
77089;SDS011;66028;53.558;9.950;2024-03-02T11:01:48;15.10;;;8.90;;
77089;SDS011;66028;53.558;9.950;2024-03-02T11:04:15;14.27;;;8.55;;
77089;SDS011;66028;53.558;9.950;2024-03-02T11:06:44;14.73;;;7.22;;
77089;SDS011;66028;53.558;9.950;2024-03-02T11:09:14;16.77;;;8.43;;
77089;SDS011;66028;53.558;9.950;2024-03-02T11:11:44;13.85;;;7.63;;
77089;SDS011;66028;53.558;9.950;2024-03-02T11:14:16;12.25;;;6.78;;
77089;SDS011;66028;53.558;9.950;2024-03-02T11:16:46;13.27;;;8.00;;
77089;SDS011;66028;53.558;9.950;2024-03-02T11:19:12;12.95;;;7.35;;
77089;SDS011;66028;53.558;9.950;2024-03-02T11:21:39;12.57;;;7.05;;
77089;SDS011;66028;53.558;9.950;2024-03-02T11:26:48;11.73;;;6.50;;
77089;SDS011;66028;53.558;9.950;2024-03-02T11:32:00;11.80;;;6.95;;
77089;SDS011;66028;53.558;9.950;2024-03-02T11:34:29;10.75;;;6.05;;
77089;SDS011;66028;53.558;9.950;2024-03-02T11:36:55;12.82;;;7.00;;
77089;SDS011;66028;53.558;9.950;2024-03-02T11:39:20;11.23;;;6.33;;
77089;SDS011;66028;53.558;9.950;2024-03-02T11:41:46;13.53;;;7.13;;
77089;SDS011;66028;53.558;9.950;2024-03-02T11:44:11;11.47;;;6.73;;
77089;SDS011;66028;53.558;9.950;2024-03-02T11:46:39;10.57;;;6.05;;
77089;SDS011;66028;53.558;9.950;2024-03-02T11:49:04;9.88;;;5.88;;
77089;SDS011;66028;53.558;9.950;2024-03-02T11:51:30;10.00;;;5.70;;
77089;SDS011;66028;53.558;9.950;2024-03-02T11:53:59;10.35;;;5.85;;
77089;SDS011;66028;53.558;9.950;2024-03-02T11:56:27;12.70;;;6.82;;
77089;SDS011;66028;53.558;9.950;2024-03-02T11:58:54;10.05;;;6.03;;
77089;SDS011;66028;53.558;9.950;2024-03-02T12:01:20;9.65;;;4.95;;
77089;SDS011;66028;53.558;9.950;2024-03-02T12:03:46;8.40;;;5.65;;
77089;SDS011;66028;53.558;9.950;2024-03-02T12:06:11;9.47;;;5.20;;
77089;SDS011;66028;53.558;9.950;2024-03-02T12:08:38;9.02;;;5.35;;
77089;SDS011;66028;53.558;9.950;2024-03-02T12:11:03;9.15;;;5.70;;
77089;SDS011;66028;53.558;9.950;2024-03-02T12:13:29;10.17;;;5.80;;
77089;SDS011;66028;53.558;9.950;2024-03-02T12:15:54;10.45;;;4.80;;
77089;SDS011;66028;53.558;9.950;2024-03-02T12:18:21;8.23;;;5.18;;
77089;SDS011;66028;53.558;9.950;2024-03-02T12:20:48;8.90;;;5.43;;
77089;SDS011;66028;53.558;9.950;2024-03-02T12:23:15;9.68;;;5.25;;
77089;SDS011;66028;53.558;9.950;2024-03-02T12:25:41;11.17;;;5.60;;
77089;SDS011;66028;53.558;9.950;2024-03-02T12:28:07;10.98;;;5.35;;
77089;SDS011;66028;53.558;9.950;2024-03-02T12:30:34;9.48;;;5.32;;
77089;SDS011;66028;53.558;9.950;2024-03-02T12:33:00;9.77;;;5.88;;
77089;SDS011;66028;53.558;9.950;2024-03-02T12:35:26;9.60;;;5.40;;
77089;SDS011;66028;53.558;9.950;2024-03-02T12:37:52;8.73;;;5.28;;
77089;SDS011;66028;53.558;9.950;2024-03-02T12:40:18;10.68;;;5.97;;
77089;SDS011;66028;53.558;9.950;2024-03-02T12:42:45;8.07;;;4.72;;
77089;SDS011;66028;53.558;9.950;2024-03-02T12:45:12;8.25;;;4.97;;
77089;SDS011;66028;53.558;9.950;2024-03-02T12:47:41;8.25;;;4.38;;
77089;SDS011;66028;53.558;9.950;2024-03-02T12:50:08;6.70;;;3.85;;
77089;SDS011;66028;53.558;9.950;2024-03-02T12:52:34;10.18;;;5.97;;
77089;SDS011;66028;53.558;9.950;2024-03-02T12:54:59;8.67;;;4.53;;
77089;SDS011;66028;53.558;9.950;2024-03-02T12:57:28;8.07;;;4.40;;
77089;SDS011;66028;53.558;9.950;2024-03-02T13:02:30;8.68;;;4.38;;
77089;SDS011;66028;53.558;9.950;2024-03-02T13:04:56;9.32;;;4.15;;
77089;SDS011;66028;53.558;9.950;2024-03-02T13:07:23;7.60;;;3.72;;
77089;SDS011;66028;53.558;9.950;2024-03-02T13:09:49;10.70;;;4.85;;
77089;SDS011;66028;53.558;9.950;2024-03-02T13:12:15;11.45;;;4.88;;
77089;SDS011;66028;53.558;9.950;2024-03-02T13:14:41;10.30;;;5.35;;
77089;SDS011;66028;53.558;9.950;2024-03-02T13:17:07;11.07;;;4.47;;
77089;SDS011;66028;53.558;9.950;2024-03-02T13:19:34;7.85;;;4.72;;
77089;SDS011;66028;53.558;9.950;2024-03-02T13:21:59;10.35;;;5.90;;
77089;SDS011;66028;53.558;9.950;2024-03-02T13:24:27;11.27;;;5.80;;
77089;SDS011;66028;53.558;9.950;2024-03-02T13:26:54;8.45;;;5.57;;
77089;SDS011;66028;53.558;9.950;2024-03-02T13:29:21;9.57;;;4.93;;
77089;SDS011;66028;53.558;9.950;2024-03-02T13:31:46;10.05;;;5.47;;
77089;SDS011;66028;53.558;9.950;2024-03-02T13:34:11;10.40;;;5.47;;
77089;SDS011;66028;53.558;9.950;2024-03-02T13:36:37;8.50;;;5.07;;
77089;SDS011;66028;53.558;9.950;2024-03-02T13:39:03;8.73;;;4.63;;
77089;SDS011;66028;53.558;9.950;2024-03-02T13:41:30;7.90;;;4.45;;
77089;SDS011;66028;53.558;9.950;2024-03-02T13:43:55;9.07;;;4.53;;
77089;SDS011;66028;53.558;9.950;2024-03-02T13:46:21;8.87;;;5.10;;
77089;SDS011;66028;53.558;9.950;2024-03-02T13:48:46;9.52;;;5.15;;
77089;SDS011;66028;53.558;9.950;2024-03-02T13:51:12;10.33;;;5.80;;
77089;SDS011;66028;53.558;9.950;2024-03-02T13:53:37;10.20;;;4.63;;
77089;SDS011;66028;53.558;9.950;2024-03-02T13:56:02;9.20;;;6.13;;
77089;SDS011;66028;53.558;9.950;2024-03-02T13:58:28;9.98;;;5.80;;
77089;SDS011;66028;53.558;9.950;2024-03-02T14:00:53;8.75;;;5.22;;
77089;SDS011;66028;53.558;9.950;2024-03-02T14:03:18;9.63;;;5.40;;
77089;SDS011;66028;53.558;9.950;2024-03-02T14:05:44;10.67;;;6.10;;
77089;SDS011;66028;53.558;9.950;2024-03-02T14:08:11;9.00;;;6.05;;
77089;SDS011;66028;53.558;9.950;2024-03-02T14:10:36;9.00;;;5.33;;
77089;SDS011;66028;53.558;9.950;2024-03-02T14:13:01;13.00;;;7.07;;
77089;SDS011;66028;53.558;9.950;2024-03-02T14:15:26;8.90;;;5.27;;
77089;SDS011;66028;53.558;9.950;2024-03-02T14:17:52;9.63;;;5.53;;
77089;SDS011;66028;53.558;9.950;2024-03-02T14:20:17;8.43;;;5.27;;
77089;SDS011;66028;53.558;9.950;2024-03-02T14:22:46;9.68;;;5.88;;
77089;SDS011;66028;53.558;9.950;2024-03-02T14:25:12;9.25;;;5.78;;
77089;SDS011;66028;53.558;9.950;2024-03-02T14:27:38;10.13;;;5.97;;
77089;SDS011;66028;53.558;9.950;2024-03-02T14:30:03;9.70;;;5.50;;
77089;SDS011;66028;53.558;9.950;2024-03-02T14:32:30;10.75;;;7.03;;
77089;SDS011;66028;53.558;9.950;2024-03-02T14:34:55;13.90;;;6.10;;
77089;SDS011;66028;53.558;9.950;2024-03-02T14:37:21;11.00;;;6.33;;
77089;SDS011;66028;53.558;9.950;2024-03-02T14:39:46;9.07;;;5.35;;
77089;SDS011;66028;53.558;9.950;2024-03-02T14:42:12;10.13;;;6.15;;
77089;SDS011;66028;53.558;9.950;2024-03-02T14:44:37;9.97;;;5.57;;
77089;SDS011;66028;53.558;9.950;2024-03-02T14:47:03;9.87;;;5.83;;
77089;SDS011;66028;53.558;9.950;2024-03-02T14:49:31;10.73;;;5.13;;
77089;SDS011;66028;53.558;9.950;2024-03-02T14:51:58;9.82;;;5.50;;
77089;SDS011;66028;53.558;9.950;2024-03-02T14:54:24;9.40;;;5.72;;
77089;SDS011;66028;53.558;9.950;2024-03-02T14:56:49;8.87;;;5.07;;
77089;SDS011;66028;53.558;9.950;2024-03-02T14:59:15;9.63;;;4.95;;
77089;SDS011;66028;53.558;9.950;2024-03-02T15:01:40;6.63;;;4.13;;
77089;SDS011;66028;53.558;9.950;2024-03-02T15:04:05;7.73;;;4.57;;
77089;SDS011;66028;53.558;9.950;2024-03-02T15:06:31;8.65;;;4.80;;
77089;SDS011;66028;53.558;9.950;2024-03-02T15:08:56;7.00;;;4.43;;
77089;SDS011;66028;53.558;9.950;2024-03-02T15:11:22;8.32;;;4.25;;
77089;SDS011;66028;53.558;9.950;2024-03-02T15:13:47;8.85;;;4.88;;
77089;SDS011;66028;53.558;9.950;2024-03-02T15:16:13;10.52;;;4.50;;
77089;SDS011;66028;53.558;9.950;2024-03-02T15:18:38;7.83;;;4.63;;
77089;SDS011;66028;53.558;9.950;2024-03-02T15:21:03;7.97;;;4.83;;
77089;SDS011;66028;53.558;9.950;2024-03-02T15:23:29;7.13;;;4.20;;
77089;SDS011;66028;53.558;9.950;2024-03-02T15:25:55;9.57;;;4.95;;
77089;SDS011;66028;53.558;9.950;2024-03-02T15:28:20;8.48;;;5.00;;
77089;SDS011;66028;53.558;9.950;2024-03-02T15:30:45;8.67;;;5.40;;
77089;SDS011;66028;53.558;9.950;2024-03-02T15:33:11;11.33;;;6.67;;
77089;SDS011;66028;53.558;9.950;2024-03-02T15:35:36;11.40;;;6.90;;
77089;SDS011;66028;53.558;9.950;2024-03-02T15:38:01;11.97;;;6.17;;
77089;SDS011;66028;53.558;9.950;2024-03-02T15:40:26;12.27;;;5.87;;
77089;SDS011;66028;53.558;9.950;2024-03-02T15:42:53;10.88;;;6.32;;
77089;SDS011;66028;53.558;9.950;2024-03-02T15:45:18;13.57;;;7.07;;
77089;SDS011;66028;53.558;9.950;2024-03-02T15:47:43;12.93;;;7.60;;
77089;SDS011;66028;53.558;9.950;2024-03-02T15:50:09;13.48;;;7.85;;
77089;SDS011;66028;53.558;9.950;2024-03-02T15:52:34;12.18;;;7.18;;
77089;SDS011;66028;53.558;9.950;2024-03-02T15:54:59;12.63;;;6.57;;
77089;SDS011;66028;53.558;9.950;2024-03-02T15:57:26;11.52;;;7.00;;
77089;SDS011;66028;53.558;9.950;2024-03-02T15:59:51;11.37;;;7.03;;
77089;SDS011;66028;53.558;9.950;2024-03-02T16:02:17;10.50;;;6.03;;
77089;SDS011;66028;53.558;9.950;2024-03-02T16:04:42;12.60;;;6.87;;
77089;SDS011;66028;53.558;9.950;2024-03-02T16:07:07;11.73;;;6.53;;
77089;SDS011;66028;53.558;9.950;2024-03-02T16:09:33;11.60;;;6.25;;
77089;SDS011;66028;53.558;9.950;2024-03-02T16:11:58;12.45;;;7.13;;
77089;SDS011;66028;53.558;9.950;2024-03-02T16:14:23;14.07;;;6.40;;
77089;SDS011;66028;53.558;9.950;2024-03-02T16:16:49;14.00;;;7.07;;
77089;SDS011;66028;53.558;9.950;2024-03-02T16:19:14;11.00;;;6.83;;
77089;SDS011;66028;53.558;9.950;2024-03-02T16:21:39;14.43;;;6.18;;
77089;SDS011;66028;53.558;9.950;2024-03-02T16:24:04;11.03;;;6.40;;
77089;SDS011;66028;53.558;9.950;2024-03-02T16:26:30;10.55;;;6.25;;
77089;SDS011;66028;53.558;9.950;2024-03-02T16:28:56;10.25;;;6.00;;
77089;SDS011;66028;53.558;9.950;2024-03-02T16:31:21;13.13;;;6.60;;
77089;SDS011;66028;53.558;9.950;2024-03-02T16:33:46;11.40;;;6.93;;
77089;SDS011;66028;53.558;9.950;2024-03-02T16:36:11;11.13;;;6.33;;
77089;SDS011;66028;53.558;9.950;2024-03-02T16:38:37;11.93;;;6.10;;
77089;SDS011;66028;53.558;9.950;2024-03-02T16:41:02;10.53;;;5.90;;
77089;SDS011;66028;53.558;9.950;2024-03-02T16:43:28;12.55;;;5.80;;
77089;SDS011;66028;53.558;9.950;2024-03-02T16:45:53;10.90;;;5.67;;
77089;SDS011;66028;53.558;9.950;2024-03-02T16:48:19;11.17;;;5.70;;
77089;SDS011;66028;53.558;9.950;2024-03-02T16:50:44;9.47;;;5.13;;
77089;SDS011;66028;53.558;9.950;2024-03-02T16:53:09;10.90;;;5.97;;
77089;SDS011;66028;53.558;9.950;2024-03-02T16:55:34;10.53;;;5.67;;
77089;SDS011;66028;53.558;9.950;2024-03-02T16:58:00;10.47;;;5.80;;
77089;SDS011;66028;53.558;9.950;2024-03-02T17:00:25;9.88;;;5.80;;
77089;SDS011;66028;53.558;9.950;2024-03-02T17:02:51;11.35;;;5.38;;
77089;SDS011;66028;53.558;9.950;2024-03-02T17:05:17;12.30;;;5.97;;
77089;SDS011;66028;53.558;9.950;2024-03-02T17:07:46;10.95;;;5.53;;
77089;SDS011;66028;53.558;9.950;2024-03-02T17:10:11;9.77;;;5.88;;
77089;SDS011;66028;53.558;9.950;2024-03-02T17:12:36;10.73;;;5.70;;
77089;SDS011;66028;53.558;9.950;2024-03-02T17:15:02;10.57;;;5.87;;
77089;SDS011;66028;53.558;9.950;2024-03-02T17:17:29;11.60;;;5.78;;
77089;SDS011;66028;53.558;9.950;2024-03-02T17:19:54;12.37;;;6.17;;
77089;SDS011;66028;53.558;9.950;2024-03-02T17:22:19;11.13;;;6.00;;
77089;SDS011;66028;53.558;9.950;2024-03-02T17:24:45;12.53;;;6.57;;
77089;SDS011;66028;53.558;9.950;2024-03-02T17:27:10;12.90;;;6.03;;
77089;SDS011;66028;53.558;9.950;2024-03-02T17:29:35;12.17;;;6.30;;
77089;SDS011;66028;53.558;9.950;2024-03-02T17:32:01;13.97;;;6.27;;
77089;SDS011;66028;53.558;9.950;2024-03-02T17:34:26;9.80;;;5.47;;
77089;SDS011;66028;53.558;9.950;2024-03-02T17:36:52;9.43;;;6.18;;
77089;SDS011;66028;53.558;9.950;2024-03-02T17:39:18;11.23;;;5.80;;
77089;SDS011;66028;53.558;9.950;2024-03-02T17:41:43;11.20;;;5.80;;
77089;SDS011;66028;53.558;9.950;2024-03-02T17:44:08;9.90;;;5.30;;
77089;SDS011;66028;53.558;9.950;2024-03-02T17:46:35;11.05;;;5.72;;
77089;SDS011;66028;53.558;9.950;2024-03-02T17:49:00;11.03;;;5.30;;
77089;SDS011;66028;53.558;9.950;2024-03-02T17:51:26;9.73;;;5.90;;
77089;SDS011;66028;53.558;9.950;2024-03-02T17:53:51;9.20;;;5.17;;